createdAt,value
2018-03-24T00:00:03.293Z,71.95
2018-03-24T00:02:30.750Z,71.96
2018-03-24T00:04:58.216Z,72.10
2018-03-24T00:07:25.709Z,72.33
2018-03-24T00:09:53.201Z,72.06
2018-03-24T00:12:20.705Z,71.76
2018-03-24T00:14:48.258Z,72.14
2018-03-24T00:17:15.743Z,71.86
2018-03-24T00:19:43.211Z,72.03
2018-03-24T00:22:10.753Z,72.04
2018-03-24T00:24:38.216Z,72.13
2018-03-24T00:27:06.356Z,72.27
2018-03-24T00:29:33.845Z,72.21
2018-03-24T00:32:01.355Z,72.26
2018-03-24T00:34:28.897Z,72.36
2018-03-24T00:36:56.352Z,72.65
2018-03-24T00:39:23.844Z,72.71
2018-03-24T00:41:51.332Z,72.35
2018-03-24T00:44:18.853Z,72.54
2018-03-24T00:46:46.381Z,72.70
2018-03-24T00:49:14.774Z,72.50
2018-03-24T00:51:42.604Z,72.20
2018-03-24T00:54:10.711Z,72.61
2018-03-24T00:56:38.264Z,72.39
2018-03-24T00:59:06.314Z,72.61
2018-03-24T01:01:34.439Z,72.09
2018-03-24T01:04:01.931Z,72.62
2018-03-24T01:06:30.307Z,72.93
2018-03-24T01:08:57.862Z,72.67
2018-03-24T01:11:27.694Z,72.05
2018-03-24T01:13:55.185Z,71.91
2018-03-24T01:16:22.648Z,72.49
2018-03-24T01:18:50.118Z,72.81
2018-03-24T01:21:17.595Z,73.42
2018-03-24T01:23:45.052Z,73.48
2018-03-24T01:26:12.554Z,73.44
2018-03-24T01:28:40.877Z,73.72
2018-03-24T01:31:08.429Z,73.98
2018-03-24T01:33:35.901Z,74.02
2018-03-24T01:36:03.367Z,73.95
2018-03-24T01:38:30.844Z,73.81
2018-03-24T01:40:58.344Z,74.02
2018-03-24T01:43:25.797Z,74.04
2018-03-24T01:45:53.260Z,74.45
2018-03-24T01:48:20.752Z,74.41
2018-03-24T01:50:48.223Z,74.19
2018-03-24T01:53:15.721Z,74.56
2018-03-24T01:55:43.193Z,74.86
2018-03-24T01:58:10.661Z,74.81
2018-03-24T02:00:38.140Z,74.90
2018-03-24T02:03:05.671Z,74.85
2018-03-24T02:05:33.164Z,75.00
2018-03-24T02:08:00.629Z,75.16
2018-03-24T02:10:28.152Z,75.31
2018-03-24T02:12:55.629Z,75.08
2018-03-24T02:15:23.088Z,75.08
2018-03-24T02:17:50.546Z,74.77
2018-03-24T02:20:18.024Z,73.84
2018-03-24T02:22:45.495Z,73.64
2018-03-24T02:25:23.748Z,73.90
2018-03-24T02:27:51.212Z,74.26
2018-03-24T02:30:18.672Z,74.20
2018-03-24T02:32:46.221Z,73.89
2018-03-24T02:35:13.795Z,73.62
2018-03-24T02:37:41.279Z,73.44
2018-03-24T02:40:08.762Z,73.51
2018-03-24T02:42:36.296Z,73.80
2018-03-24T02:45:03.764Z,73.69
2018-03-24T02:47:31.234Z,74.08
2018-03-24T02:49:58.702Z,73.95
2018-03-24T02:52:26.189Z,73.59
2018-03-24T02:54:53.671Z,73.89
2018-03-24T02:57:21.171Z,74.02
2018-03-24T02:59:48.639Z,74.07
2018-03-24T03:02:16.123Z,74.29
2018-03-24T03:04:43.596Z,74.01
2018-03-24T03:07:11.080Z,73.96
2018-03-24T03:09:38.556Z,74.42
2018-03-24T03:12:06.007Z,74.41
2018-03-24T03:14:33.533Z,74.11
2018-03-24T03:17:00.991Z,74.31
2018-03-24T03:19:28.464Z,74.33
2018-03-24T03:21:56.008Z,74.42
2018-03-24T03:24:23.484Z,74.57
2018-03-24T03:26:50.921Z,74.46
2018-03-24T03:29:18.424Z,74.63
2018-03-24T03:31:50.448Z,74.58
2018-03-24T03:34:17.960Z,74.60
2018-03-24T03:36:45.443Z,74.29
2018-03-24T03:39:12.901Z,74.08
2018-03-24T03:41:40.363Z,74.01
2018-03-24T03:44:07.838Z,74.04
2018-03-24T03:46:35.363Z,74.24
2018-03-24T03:49:02.839Z,74.33
2018-03-24T03:51:30.308Z,74.13
2018-03-24T03:53:57.773Z,74.43
2018-03-24T03:56:25.248Z,74.30
2018-03-24T03:58:52.717Z,74.27
2018-03-24T04:01:20.246Z,74.39
2018-03-24T04:03:47.734Z,74.54
2018-03-24T04:06:15.376Z,74.59
2018-03-24T04:08:42.883Z,74.36
2018-03-24T04:11:10.326Z,74.17
2018-03-24T04:13:37.979Z,74.39
2018-03-24T04:16:05.638Z,74.22
2018-03-24T04:18:33.141Z,73.69
2018-03-24T04:21:00.557Z,73.69
2018-03-24T04:23:29.447Z,73.55
2018-03-24T04:25:56.925Z,73.62
2018-03-24T04:28:24.378Z,74.12
2018-03-24T04:30:51.856Z,74.20
2018-03-24T04:33:19.297Z,74.25
2018-03-24T04:35:46.785Z,74.55
2018-03-24T04:38:14.267Z,74.12
2018-03-24T04:40:41.722Z,74.47
2018-03-24T04:43:09.186Z,74.35
2018-03-24T04:45:36.639Z,74.54
2018-03-24T04:48:04.105Z,74.39
2018-03-24T04:50:31.571Z,74.02
2018-03-24T04:52:59.016Z,73.93
2018-03-24T04:55:26.494Z,74.58
2018-03-24T04:57:54.054Z,74.36
2018-03-24T05:00:21.511Z,74.28
2018-03-24T05:02:49.016Z,74.14
2018-03-24T05:05:16.516Z,74.74
2018-03-24T05:07:43.971Z,74.34
2018-03-24T05:10:11.468Z,74.11
2018-03-24T05:12:38.941Z,74.29
2018-03-24T05:15:06.616Z,74.79
2018-03-24T05:17:34.060Z,74.46
2018-03-24T05:20:01.523Z,73.99
2018-03-24T05:22:29.013Z,73.22
2018-03-24T05:24:56.478Z,73.13
2018-03-24T05:27:23.915Z,73.27
2018-03-24T05:29:51.418Z,73.00
2018-03-24T05:32:18.872Z,73.29
2018-03-24T05:34:46.536Z,73.12
2018-03-24T05:37:14.018Z,72.61
2018-03-24T05:39:41.520Z,72.11
2018-03-24T05:42:08.984Z,72.33
2018-03-24T05:44:36.450Z,71.53
2018-03-24T05:47:03.958Z,72.02
2018-03-24T05:49:31.422Z,71.65
2018-03-24T05:51:58.895Z,71.22
2018-03-24T05:54:26.377Z,69.98
2018-03-24T05:56:54.772Z,70.01
2018-03-24T05:59:22.222Z,69.58
2018-03-24T06:01:49.707Z,69.36
2018-03-24T06:04:17.233Z,68.66
2018-03-24T06:06:44.731Z,68.45
2018-03-24T06:09:12.196Z,68.30
2018-03-24T06:11:40.599Z,68.05
2018-03-24T06:14:08.111Z,68.20
2018-03-24T06:16:35.588Z,67.87
2018-03-24T06:19:03.082Z,67.82
2018-03-24T06:21:30.615Z,67.02
2018-03-24T06:23:58.275Z,66.66
2018-03-24T06:26:25.769Z,66.77
2018-03-24T06:28:53.300Z,66.23
2018-03-24T06:31:20.784Z,66.37
2018-03-24T06:33:48.292Z,66.60
2018-03-24T06:36:16.282Z,66.56
2018-03-24T06:38:43.790Z,65.97
2018-03-24T06:41:11.274Z,65.44
2018-03-24T06:43:39.256Z,64.77
2018-03-24T06:46:06.723Z,64.54
2018-03-24T06:48:34.278Z,64.70
2018-03-24T06:51:01.816Z,63.90
2018-03-24T06:53:29.270Z,63.81
2018-03-24T06:55:58.391Z,63.49
2018-03-24T06:58:25.888Z,63.50
2018-03-24T07:00:53.380Z,63.79
2018-03-24T07:03:20.870Z,63.00
2018-03-24T07:05:48.327Z,62.66
2018-03-24T07:08:15.826Z,62.27
2018-03-24T07:10:43.288Z,61.88
2018-03-24T07:13:10.764Z,60.96
2018-03-24T07:15:38.237Z,61.21
2018-03-24T07:18:05.757Z,61.08
2018-03-24T07:20:33.310Z,60.58
2018-03-24T07:23:01.131Z,60.69
2018-03-24T07:25:28.600Z,60.66
2018-03-24T07:27:56.128Z,60.86
2018-03-24T07:30:23.623Z,60.05
2018-03-24T07:32:51.091Z,59.65
2018-03-24T07:35:18.617Z,59.25
2018-03-24T07:37:46.094Z,58.74
2018-03-24T07:40:13.573Z,59.22
2018-03-24T07:42:41.096Z,59.31
2018-03-24T07:45:08.616Z,59.35
2018-03-24T07:47:36.243Z,59.76
2018-03-24T07:50:03.720Z,61.00
2018-03-24T07:52:31.183Z,60.65
2018-03-24T07:54:58.688Z,60.35
2018-03-24T07:57:27.476Z,60.58
2018-03-24T07:59:55.082Z,60.94
2018-03-24T08:02:22.599Z,61.06
2018-03-24T08:04:50.065Z,60.79
2018-03-24T08:07:17.602Z,60.78
2018-03-24T08:09:45.129Z,60.32
2018-03-24T08:12:12.580Z,60.43
2018-03-24T08:14:40.123Z,59.93
2018-03-24T08:17:07.745Z,58.77
2018-03-24T08:19:35.671Z,59.11
2018-03-24T08:22:03.175Z,59.09
2018-03-24T08:24:30.942Z,59.08
2018-03-24T08:26:59.629Z,58.63
2018-03-24T08:29:27.158Z,58.47
2018-03-24T08:31:54.652Z,58.71
2018-03-24T08:34:22.168Z,58.45
2018-03-24T08:36:49.648Z,57.63
2018-03-24T08:39:17.198Z,57.40
2018-03-24T08:41:44.766Z,56.91
2018-03-24T08:44:12.293Z,56.73
2018-03-24T08:46:39.928Z,55.40
2018-03-24T08:49:07.436Z,52.67
2018-03-24T08:51:35.025Z,52.36
2018-03-24T08:54:02.478Z,52.38
2018-03-24T08:56:29.967Z,52.55
2018-03-24T08:58:57.628Z,52.13
2018-03-24T09:01:25.197Z,51.49
2018-03-24T09:03:52.799Z,50.32
2018-03-24T09:06:20.289Z,51.24
2018-03-24T09:08:47.827Z,50.97
2018-03-24T09:11:15.329Z,51.07
2018-03-24T09:13:42.842Z,49.97
2018-03-24T09:16:10.425Z,50.13
2018-03-24T09:18:37.906Z,48.24
2018-03-24T09:21:05.415Z,47.57
2018-03-24T09:23:32.930Z,48.43
2018-03-24T09:26:00.444Z,48.25
2018-03-24T09:28:27.968Z,47.61
2018-03-24T09:30:55.483Z,47.63
2018-03-24T09:33:22.965Z,46.53
2018-03-24T09:35:50.435Z,44.18
2018-03-24T09:38:17.941Z,42.23
2018-03-24T09:40:45.431Z,41.59
2018-03-24T09:43:12.951Z,42.52
2018-03-24T09:45:40.414Z,42.94
2018-03-24T09:48:07.922Z,42.80
2018-03-24T09:50:35.414Z,41.67
2018-03-24T09:53:02.871Z,41.67
2018-03-24T09:55:30.353Z,41.74
2018-03-24T09:57:57.855Z,40.53
2018-03-24T10:00:25.321Z,41.13
2018-03-24T10:02:52.872Z,41.42
2018-03-24T10:05:20.332Z,41.35
2018-03-24T10:07:47.819Z,40.85
2018-03-24T10:10:15.337Z,40.15
2018-03-24T10:12:42.839Z,39.96
2018-03-24T10:15:11.072Z,39.21
2018-03-24T10:17:38.563Z,39.38
2018-03-24T10:20:06.115Z,39.61
2018-03-24T10:22:55.086Z,38.29
2018-03-24T10:25:22.595Z,38.63
2018-03-24T10:27:50.151Z,38.75
2018-03-24T10:30:17.626Z,38.87
2018-03-24T10:32:45.155Z,38.07
2018-03-24T10:35:12.633Z,37.08
2018-03-24T10:37:45.587Z,37.46
2018-03-24T10:40:13.213Z,37.53
2018-03-24T10:42:40.721Z,37.60
2018-03-24T10:45:08.792Z,37.57
2018-03-24T10:47:36.270Z,36.62
2018-03-24T10:50:03.767Z,35.90
2018-03-24T10:52:31.254Z,36.19
2018-03-24T10:54:59.469Z,35.18
2018-03-24T10:57:27.844Z,34.50
2018-03-24T10:59:55.306Z,34.85
2018-03-24T11:02:22.780Z,34.02
2018-03-24T11:04:50.295Z,33.83
2018-03-24T11:07:17.783Z,33.45
2018-03-24T11:09:45.254Z,33.71
2018-03-24T11:12:12.746Z,33.35
2018-03-24T11:14:40.260Z,33.34
2018-03-24T11:17:07.759Z,32.96
2018-03-24T11:19:35.239Z,33.07
2018-03-24T11:22:02.717Z,32.54
2018-03-24T11:24:30.279Z,32.18
2018-03-24T11:26:58.643Z,32.84
2018-03-24T11:29:26.114Z,33.13
2018-03-24T11:31:53.594Z,33.28
2018-03-24T11:34:21.141Z,31.92
2018-03-24T11:36:49.190Z,31.53
2018-03-24T11:39:16.712Z,31.31
2018-03-24T11:41:44.260Z,30.94
2018-03-24T11:44:11.727Z,31.17
2018-03-24T11:46:39.257Z,31.14
2018-03-24T11:49:07.011Z,31.19
2018-03-24T11:51:34.475Z,30.38
2018-03-24T11:54:02.014Z,30.89
2018-03-24T11:56:29.497Z,31.27
2018-03-24T11:58:57.083Z,31.73
2018-03-24T12:01:25.706Z,31.36
2018-03-24T12:03:53.176Z,31.54
2018-03-24T12:06:20.637Z,31.13
2018-03-24T12:08:48.155Z,31.09
2018-03-24T12:11:15.619Z,31.73
2018-03-24T12:13:43.293Z,31.81
2018-03-24T12:16:10.866Z,31.95
2018-03-24T12:18:38.407Z,31.48
2018-03-24T12:21:05.863Z,31.41
2018-03-24T12:23:33.317Z,31.53
2018-03-24T12:26:00.819Z,31.62
2018-03-24T12:28:28.315Z,31.18
2018-03-24T12:30:55.763Z,31.27
2018-03-24T12:33:23.246Z,31.72
2018-03-24T12:35:50.702Z,31.17
2018-03-24T12:38:18.347Z,31.25
2018-03-24T12:40:45.812Z,31.35
2018-03-24T12:43:13.283Z,31.27
2018-03-24T12:45:40.777Z,31.46
2018-03-24T12:48:08.236Z,30.88
2018-03-24T12:50:35.736Z,30.87
2018-03-24T12:53:03.245Z,30.89
2018-03-24T12:55:30.752Z,30.97
2018-03-24T12:57:58.393Z,30.87
2018-03-24T13:00:25.982Z,30.58
2018-03-24T13:02:53.443Z,30.14
2018-03-24T13:05:20.969Z,29.67
2018-03-24T13:07:49.180Z,29.41
2018-03-24T13:10:18.309Z,29.05
2018-03-24T13:12:45.783Z,29.28
2018-03-24T13:15:13.279Z,29.22
2018-03-24T13:17:40.764Z,29.19
2018-03-24T13:20:08.228Z,28.68
2018-03-24T13:22:35.764Z,28.21
2018-03-24T13:25:03.264Z,28.08
2018-03-24T13:27:30.781Z,27.98
2018-03-24T13:29:58.268Z,27.90
2018-03-24T13:32:25.799Z,27.67
2018-03-24T13:34:53.252Z,27.48
2018-03-24T13:37:20.712Z,27.45
2018-03-24T13:39:48.191Z,27.95
2018-03-24T13:42:15.657Z,28.17
2018-03-24T13:44:43.158Z,27.47
2018-03-24T13:47:10.666Z,27.40
2018-03-24T13:49:38.133Z,27.00
2018-03-24T13:52:06.876Z,27.13
2018-03-24T13:54:34.403Z,26.93
2018-03-24T13:57:02.006Z,27.09
2018-03-24T13:59:29.468Z,27.04
2018-03-24T14:01:56.945Z,27.44
2018-03-24T14:04:24.407Z,27.22
2018-03-24T14:06:51.863Z,27.14
2018-03-24T14:09:19.347Z,26.97
2018-03-24T14:11:46.867Z,26.82
2018-03-24T14:14:14.307Z,26.04
2018-03-24T14:16:41.799Z,25.26
2018-03-24T14:19:09.279Z,24.96
2018-03-24T14:21:36.755Z,23.91
2018-03-24T14:24:04.216Z,23.15
2018-03-24T14:26:31.689Z,22.39
2018-03-24T14:28:59.208Z,22.09
2018-03-24T14:31:26.707Z,21.74
2018-03-24T14:33:54.180Z,21.58
2018-03-24T14:36:21.658Z,21.69
2018-03-24T14:38:49.128Z,21.66
2018-03-24T14:41:16.648Z,21.67
2018-03-24T14:43:44.147Z,21.17
2018-03-24T14:46:11.672Z,20.07
2018-03-24T14:48:39.164Z,19.96
2018-03-24T14:51:07.447Z,19.87
2018-03-24T14:53:34.952Z,20.33
2018-03-24T14:56:02.435Z,20.48
2018-03-24T14:58:29.926Z,20.07
2018-03-24T15:00:57.444Z,20.07
2018-03-24T15:03:24.939Z,19.95
2018-03-24T15:05:52.406Z,19.94
2018-03-24T15:08:20.704Z,20.39
2018-03-24T15:10:48.272Z,20.32
2018-03-24T15:13:15.761Z,20.19
2018-03-24T15:15:43.234Z,20.63
2018-03-24T15:18:10.702Z,20.32
2018-03-24T15:20:38.411Z,20.49
2018-03-24T15:23:05.885Z,20.17
2018-03-24T15:25:33.349Z,20.68
2018-03-24T15:28:00.836Z,20.36
2018-03-24T15:30:40.128Z,20.28
2018-03-24T15:33:19.440Z,20.70
2018-03-24T15:35:58.720Z,21.23
2018-03-24T15:38:26.228Z,21.32
2018-03-24T15:40:53.720Z,21.31
2018-03-24T15:43:21.188Z,21.02
2018-03-24T15:45:48.655Z,21.29
2018-03-24T15:48:16.131Z,21.42
2018-03-24T15:50:43.593Z,21.96
2018-03-24T15:53:11.058Z,22.08
2018-03-24T15:55:38.597Z,22.33
2018-03-24T15:58:06.092Z,22.85
2018-03-24T16:00:34.510Z,23.51
2018-03-24T16:03:02.010Z,24.61
2018-03-24T16:05:29.566Z,25.18
2018-03-24T16:07:57.123Z,25.37
2018-03-24T16:10:24.802Z,25.44
2018-03-24T16:12:52.304Z,25.90
2018-03-24T16:15:19.813Z,26.60
2018-03-24T16:17:47.303Z,26.93
2018-03-24T16:20:14.862Z,27.62
2018-03-24T16:22:42.345Z,28.65
2018-03-24T16:25:09.797Z,29.39
2018-03-24T16:27:37.275Z,29.93
2018-03-24T16:30:04.783Z,30.71
2018-03-24T16:32:32.248Z,30.68
2018-03-24T16:34:59.734Z,31.05
2018-03-24T16:37:27.199Z,31.01
2018-03-24T16:39:55.327Z,32.30
2018-03-24T16:42:22.847Z,33.06
2018-03-24T16:44:50.302Z,33.82
2018-03-24T16:47:18.984Z,34.43
2018-03-24T16:49:46.568Z,35.75
2018-03-24T16:52:14.046Z,36.15
2018-03-24T16:54:41.603Z,36.88
2018-03-24T16:57:09.121Z,37.95
2018-03-24T16:59:36.610Z,39.02
2018-03-24T17:02:04.141Z,40.16
2018-03-24T17:04:31.647Z,41.13
2018-03-24T17:06:59.188Z,42.15
2018-03-24T17:09:26.835Z,42.85
2018-03-24T17:11:54.349Z,43.90
2018-03-24T17:14:21.871Z,44.95
2018-03-24T17:16:49.372Z,45.96
2018-03-24T17:19:16.966Z,47.32
2018-03-24T17:21:44.460Z,48.07
2018-03-24T17:24:11.957Z,48.95
2018-03-24T17:26:39.536Z,49.31
2018-03-24T17:29:08.172Z,49.63
2018-03-24T17:31:35.800Z,50.28
2018-03-24T17:34:03.329Z,50.78
2018-03-24T17:36:30.864Z,51.05
2018-03-24T17:38:58.391Z,51.86
2018-03-24T17:41:25.865Z,52.35
2018-03-24T17:43:53.348Z,53.18
2018-03-24T17:46:20.824Z,53.61
2018-03-24T17:48:48.363Z,53.91
2018-03-24T17:51:15.908Z,54.69
2018-03-24T17:53:43.374Z,55.23
2018-03-24T17:56:10.892Z,55.55
2018-03-24T17:58:38.367Z,56.27
2018-03-24T18:01:05.879Z,56.45
2018-03-24T18:03:33.404Z,56.79
2018-03-24T18:06:00.922Z,57.26
2018-03-24T18:08:28.390Z,57.69
2018-03-24T18:10:55.882Z,57.76
2018-03-24T18:13:23.883Z,58.41
2018-03-24T18:15:51.345Z,58.59
2018-03-24T18:18:18.849Z,58.86
2018-03-24T18:20:46.353Z,58.79
2018-03-24T18:23:13.863Z,59.10
2018-03-24T18:25:41.443Z,59.58
2018-03-24T18:28:09.110Z,59.58
2018-03-24T18:30:36.884Z,59.84
2018-03-24T18:33:04.415Z,59.77
2018-03-24T18:37:58.972Z,59.49
2018-03-24T18:40:26.753Z,59.46
2018-03-24T18:42:54.287Z,59.86
2018-03-24T18:45:21.796Z,60.02
2018-03-24T18:47:49.312Z,60.17
2018-03-24T18:50:16.881Z,60.46
2018-03-24T18:52:44.992Z,60.93
2018-03-24T18:55:12.624Z,61.76
2018-03-24T18:57:40.116Z,62.07
2018-03-24T19:00:07.765Z,62.51
2018-03-24T19:02:35.582Z,63.15
2018-03-24T19:05:03.299Z,63.50
2018-03-24T19:07:30.767Z,63.56
2018-03-24T19:09:58.498Z,64.25
2018-03-24T19:12:26.061Z,65.02
2018-03-24T19:14:53.575Z,65.24
2018-03-24T19:17:21.064Z,65.58
2018-03-24T19:19:48.549Z,65.54
2018-03-24T19:22:16.112Z,65.78
2018-03-24T19:24:43.688Z,65.57
2018-03-24T19:27:11.169Z,65.88
2018-03-24T19:29:38.650Z,66.52
2018-03-24T19:32:06.112Z,66.79
2018-03-24T19:34:33.903Z,67.15
2018-03-24T19:37:01.438Z,67.49
2018-03-24T19:39:29.111Z,67.49
2018-03-24T19:41:56.817Z,67.63
2018-03-24T19:44:24.327Z,67.76
2018-03-24T19:46:51.800Z,67.86
2018-03-24T19:49:19.312Z,68.21
2018-03-24T19:51:46.784Z,68.23
2018-03-24T19:54:14.505Z,68.45
2018-03-24T19:56:42.289Z,68.77
2018-03-24T19:59:09.917Z,69.16
2018-03-24T20:01:37.421Z,69.44
2018-03-24T20:04:05.192Z,69.65
2018-03-24T20:06:32.725Z,69.44
2018-03-24T20:09:00.271Z,69.32
2018-03-24T20:11:28.069Z,69.68
2018-03-24T20:13:55.920Z,70.12
2018-03-24T20:16:23.674Z,70.57
2018-03-24T20:18:51.464Z,70.87
2018-03-24T20:21:19.230Z,70.85
2018-03-24T20:23:46.996Z,71.24
2018-03-24T20:26:14.530Z,71.63
2018-03-24T20:28:42.034Z,71.99
2018-03-24T20:31:09.672Z,71.94
2018-03-24T20:33:38.129Z,72.29
2018-03-24T20:36:05.867Z,72.66
2018-03-24T20:38:33.484Z,72.81
2018-03-24T20:41:00.996Z,73.51
2018-03-24T20:43:29.741Z,73.82
2018-03-24T20:45:57.284Z,73.78
2018-03-24T20:48:24.732Z,73.92
2018-03-24T20:50:52.198Z,74.16
2018-03-24T20:53:19.695Z,74.47
2018-03-24T20:55:47.311Z,74.65
2018-03-24T20:58:15.034Z,74.38
2018-03-24T21:00:42.674Z,74.66
2018-03-24T21:03:10.260Z,74.66
2018-03-24T21:05:37.872Z,75.04
2018-03-24T21:08:05.483Z,75.44
2018-03-24T21:10:33.153Z,75.82
2018-03-24T21:13:00.834Z,76.16
2018-03-24T21:15:28.426Z,75.89
2018-03-24T21:17:56.088Z,75.98
2018-03-24T21:20:24.016Z,76.01
2018-03-24T21:22:51.822Z,75.85
2018-03-24T21:25:19.515Z,76.27
2018-03-24T21:27:48.289Z,76.64
2018-03-24T21:30:16.020Z,76.69
2018-03-24T21:32:43.690Z,76.32
2018-03-24T21:35:11.425Z,76.38
2018-03-24T21:37:39.061Z,76.64
2018-03-24T21:40:06.638Z,76.97
2018-03-24T21:42:34.198Z,77.31
2018-03-24T21:45:01.730Z,77.22
2018-03-24T21:47:29.294Z,76.97
2018-03-24T21:49:57.049Z,76.73
2018-03-24T21:52:24.594Z,77.16
2018-03-24T21:54:52.228Z,77.46
2018-03-24T21:57:19.784Z,78.04
2018-03-24T21:59:47.293Z,78.36
2018-03-24T22:02:14.770Z,78.40
2018-03-24T22:04:42.268Z,78.61
2018-03-24T22:07:09.741Z,78.24
2018-03-24T22:09:37.276Z,78.75
2018-03-24T22:12:04.749Z,79.02
2018-03-24T22:14:32.192Z,79.23
2018-03-24T22:17:01.154Z,79.45
2018-03-24T22:19:28.624Z,79.52
2018-03-24T22:21:56.155Z,79.59
2018-03-24T22:24:23.629Z,79.74
2018-03-24T22:26:51.138Z,80.12
2018-03-24T22:29:18.660Z,80.16
2018-03-24T22:31:46.160Z,80.52
2018-03-24T22:34:13.667Z,80.73
2018-03-24T22:36:41.213Z,80.99
2018-03-24T22:39:08.749Z,80.77
2018-03-24T22:41:36.245Z,80.38
2018-03-24T22:44:03.729Z,80.20
2018-03-24T22:46:31.190Z,80.51
2018-03-24T22:48:58.667Z,80.63
2018-03-24T22:51:26.285Z,80.59
2018-03-24T22:53:53.783Z,80.50
2018-03-24T22:56:21.290Z,80.90
2018-03-24T22:58:48.754Z,80.90
2018-03-24T23:01:22.252Z,81.00
2018-03-24T23:03:49.723Z,81.10
2018-03-24T23:06:17.199Z,80.93
2018-03-24T23:08:44.741Z,81.28
2018-03-24T23:11:12.165Z,81.51
2018-03-24T23:13:39.655Z,81.90
2018-03-24T23:16:07.185Z,81.98
2018-03-24T23:18:34.659Z,81.76
2018-03-24T23:21:02.120Z,81.66
2018-03-24T23:23:29.583Z,81.92
2018-03-24T23:25:57.159Z,82.32
2018-03-24T23:28:25.094Z,82.45
2018-03-24T23:30:55.527Z,82.78
2018-03-24T23:33:23.155Z,82.57
2018-03-24T23:35:50.639Z,81.78
2018-03-24T23:38:18.090Z,81.54
2018-03-24T23:40:45.777Z,81.69
2018-03-24T23:43:13.249Z,81.53
2018-03-24T23:45:40.773Z,81.39
2018-03-24T23:48:08.257Z,81.36
2018-03-24T23:50:35.735Z,81.38
2018-03-24T23:53:03.200Z,81.38
2018-03-24T23:55:30.653Z,81.34
2018-03-24T23:57:58.151Z,81.24
